createdAt,value
2022-11-01T00:00:39.292Z,71.23
2022-11-01T00:03:12.966Z,71.18
2022-11-01T00:05:47.770Z,71.23
2022-11-01T00:08:21.273Z,71.36
2022-11-01T00:10:54.671Z,71.35
2022-11-01T00:13:28.036Z,71.30
2022-11-01T00:16:02.038Z,71.23
2022-11-01T00:18:35.376Z,71.08
2022-11-01T00:21:09.168Z,71.00
2022-11-01T00:23:42.738Z,70.91
2022-11-01T00:26:20.112Z,70.83
2022-11-01T00:28:52.861Z,70.87
2022-11-01T00:31:26.443Z,70.66
2022-11-01T00:34:01.456Z,70.65
2022-11-01T00:36:35.468Z,70.60
2022-11-01T00:39:08.764Z,70.66
2022-11-01T00:41:42.157Z,70.83
2022-11-01T00:44:15.311Z,70.80
2022-11-01T00:46:48.654Z,70.67
2022-11-01T00:49:22.042Z,70.70
2022-11-01T00:51:55.392Z,70.62
2022-11-01T00:54:28.694Z,70.48
2022-11-01T00:57:02.085Z,70.53
2022-11-01T00:59:40.640Z,70.48
2022-11-01T01:02:10.701Z,70.48
2022-11-01T01:04:44.251Z,70.41
2022-11-01T01:07:18.494Z,70.28
2022-11-01T01:09:51.979Z,70.12
2022-11-01T01:12:25.226Z,69.94
2022-11-01T01:14:58.643Z,70.07
2022-11-01T01:17:33.789Z,69.94
2022-11-01T01:20:09.104Z,70.01
2022-11-01T01:22:42.888Z,69.95
2022-11-01T01:25:16.907Z,69.91
2022-11-01T01:27:50.335Z,69.88
2022-11-01T01:30:23.749Z,69.92
2022-11-01T01:32:57.145Z,69.91
2022-11-01T01:35:30.377Z,69.94
2022-11-01T01:38:03.966Z,69.94
2022-11-01T01:40:38.055Z,69.88
2022-11-01T01:43:14.606Z,69.78
2022-11-01T01:45:48.602Z,69.61
2022-11-01T01:48:24.902Z,69.62
2022-11-01T01:51:02.137Z,69.80
2022-11-01T01:53:38.414Z,69.76
2022-11-01T01:58:57.903Z,69.84
2022-11-01T02:01:32.615Z,69.84
2022-11-01T02:04:08.239Z,69.73
2022-11-01T02:06:42.269Z,69.75
2022-11-01T02:09:17.128Z,69.86
2022-11-01T02:11:50.654Z,69.87
2022-11-01T02:14:26.109Z,69.81
2022-11-01T02:17:05.638Z,69.70
2022-11-01T02:20:18.289Z,69.57
2022-11-01T02:23:19.084Z,69.39
2022-11-01T02:26:03.342Z,69.30
2022-11-01T02:28:45.250Z,69.13
2022-11-01T02:31:32.011Z,69.16
2022-11-01T02:34:08.734Z,69.15
2022-11-01T02:36:44.818Z,69.05
2022-11-01T02:39:21.630Z,68.98
2022-11-01T02:41:57.687Z,68.80
2022-11-01T02:44:34.009Z,68.69
2022-11-01T02:47:12.585Z,68.72
2022-11-01T02:49:51.738Z,68.86
2022-11-01T02:52:29.502Z,68.88
2022-11-01T02:55:09.970Z,68.95
2022-11-01T02:57:48.300Z,68.96
2022-11-01T03:00:28.841Z,68.91
2022-11-01T03:03:13.121Z,68.87
2022-11-01T03:05:59.404Z,68.92
2022-11-01T03:08:35.402Z,69.03
2022-11-01T03:11:12.140Z,69.06
2022-11-01T03:13:56.523Z,69.09
2022-11-01T03:16:35.189Z,69.06
2022-11-01T03:19:28.350Z,68.88
2022-11-01T03:22:06.262Z,68.93
2022-11-01T03:24:44.370Z,68.99
2022-11-01T03:27:21.023Z,68.90
2022-11-01T03:29:57.366Z,68.94
2022-11-01T03:32:33.998Z,68.96
2022-11-01T03:35:11.995Z,68.94
2022-11-01T03:37:48.238Z,68.88
2022-11-01T03:40:23.493Z,68.72
2022-11-01T03:42:59.776Z,68.72
2022-11-01T03:45:34.836Z,68.69
2022-11-01T03:48:09.352Z,68.65
2022-11-01T03:50:44.013Z,68.57
2022-11-01T03:53:17.297Z,68.68
2022-11-01T03:55:51.144Z,68.70
2022-11-01T03:58:25.122Z,68.64
2022-11-01T04:00:58.201Z,68.57
2022-11-01T04:03:31.674Z,68.51
2022-11-01T04:06:05.683Z,68.45
2022-11-01T04:08:39.466Z,68.25
2022-11-01T04:11:12.760Z,68.19
2022-11-01T04:13:47.857Z,68.10
2022-11-01T04:16:39.130Z,68.15
2022-11-01T04:19:30.225Z,67.88
2022-11-01T04:22:04.512Z,67.38
2022-11-01T04:24:37.949Z,67.31
2022-11-01T04:27:11.141Z,67.54
2022-11-01T04:29:44.759Z,67.64
2022-11-01T04:32:18.408Z,67.59
2022-11-01T04:34:53.181Z,67.72
2022-11-01T04:37:26.789Z,67.56
2022-11-01T04:40:00.163Z,67.73
2022-11-01T04:42:35.352Z,67.84
2022-11-01T04:45:12.776Z,67.79
2022-11-01T04:47:52.585Z,67.85
2022-11-01T04:50:25.956Z,67.74
2022-11-01T04:53:01.400Z,67.80
2022-11-01T04:55:35.095Z,67.70
2022-11-01T04:58:10.107Z,67.51
2022-11-01T05:00:44.104Z,67.58
2022-11-01T05:03:17.667Z,67.63
2022-11-01T05:05:50.967Z,67.55
2022-11-01T05:08:24.331Z,67.43
2022-11-01T05:10:58.129Z,67.43
2022-11-01T05:13:31.629Z,67.37
2022-11-01T05:16:18.770Z,67.31
2022-11-01T05:18:43.356Z,67.35
2022-11-01T05:21:17.294Z,67.19
2022-11-01T05:23:50.957Z,67.30
2022-11-01T05:26:24.514Z,67.30
2022-11-01T05:28:57.760Z,67.28
2022-11-01T05:31:31.547Z,67.30
2022-11-01T05:34:04.988Z,67.26
2022-11-01T05:36:38.671Z,67.14
2022-11-01T05:39:12.593Z,67.08
2022-11-01T05:41:46.116Z,67.05
2022-11-01T05:44:19.362Z,66.75
2022-11-01T05:46:53.050Z,66.83
2022-11-01T05:49:26.320Z,66.97
2022-11-01T05:52:00.079Z,66.99
2022-11-01T05:54:33.411Z,66.88
2022-11-01T05:57:08.679Z,66.68
2022-11-01T05:59:42.359Z,66.79
2022-11-01T06:02:16.319Z,66.75
2022-11-01T06:04:49.850Z,66.57
2022-11-01T06:07:23.371Z,66.51
2022-11-01T06:09:56.939Z,66.65
2022-11-01T06:12:30.227Z,66.66
2022-11-01T06:15:03.826Z,66.65
2022-11-01T06:17:37.322Z,66.56
2022-11-01T06:20:12.736Z,66.54
2022-11-01T06:22:46.343Z,66.52
2022-11-01T06:25:20.513Z,66.55
2022-11-01T06:27:54.422Z,66.44
2022-11-01T06:30:27.957Z,66.31
2022-11-01T06:33:03.633Z,66.29
2022-11-01T06:35:37.309Z,66.27
2022-11-01T06:38:11.096Z,66.24
2022-11-01T06:40:44.568Z,66.27
2022-11-01T06:43:19.649Z,66.17
2022-11-01T06:45:53.143Z,66.10
2022-11-01T06:48:26.368Z,66.01
2022-11-01T06:50:59.780Z,65.97
2022-11-01T06:53:33.551Z,66.00
2022-11-01T06:56:08.184Z,66.03
2022-11-01T06:58:41.814Z,65.84
2022-11-01T07:01:15.519Z,65.76
2022-11-01T07:03:50.303Z,65.76
2022-11-01T07:06:26.609Z,65.65
2022-11-01T07:09:01.094Z,65.72
2022-11-01T07:11:35.136Z,65.79
2022-11-01T07:14:08.948Z,65.64
2022-11-01T07:16:42.530Z,65.54
2022-11-01T07:19:18.778Z,65.45
2022-11-01T07:21:52.127Z,65.48
2022-11-01T07:24:25.404Z,65.37
2022-11-01T07:26:58.874Z,65.11
2022-11-01T07:29:32.202Z,65.21
2022-11-01T07:32:05.769Z,65.25
2022-11-01T07:34:38.945Z,65.14
2022-11-01T07:37:12.280Z,65.17
2022-11-01T07:39:45.772Z,65.18
2022-11-01T07:42:19.201Z,65.24
2022-11-01T07:44:52.548Z,65.25
2022-11-01T07:47:26.044Z,65.18
2022-11-01T07:49:59.487Z,65.08
2022-11-01T07:52:34.151Z,65.13
2022-11-01T07:55:09.588Z,64.95
2022-11-01T07:57:43.262Z,64.81
2022-11-01T08:00:18.843Z,64.82
2022-11-01T08:02:52.281Z,64.79
2022-11-01T08:05:25.590Z,64.68
2022-11-01T08:08:00.209Z,64.70
2022-11-01T08:10:34.829Z,64.83
2022-11-01T08:13:10.401Z,64.76
2022-11-01T08:15:43.910Z,64.50
2022-11-01T08:18:18.071Z,64.69
2022-11-01T08:20:52.133Z,64.85
2022-11-01T08:23:25.470Z,64.97
2022-11-01T08:26:00.028Z,64.75
2022-11-01T08:28:33.669Z,64.75
2022-11-01T08:31:10.273Z,64.69
2022-11-01T08:33:43.750Z,64.51
2022-11-01T08:36:17.893Z,64.43
2022-11-01T08:38:51.414Z,64.18
2022-11-01T08:41:24.782Z,64.10
2022-11-01T08:44:00.235Z,63.84
2022-11-01T08:46:33.803Z,63.81
2022-11-01T08:49:07.408Z,63.65
2022-11-01T08:51:41.075Z,63.68
2022-11-01T08:54:14.610Z,63.78
2022-11-01T08:56:48.294Z,63.82
2022-11-01T08:59:21.992Z,63.76
2022-11-01T09:01:55.420Z,63.54
2022-11-01T09:04:28.712Z,63.33
2022-11-01T09:07:02.080Z,62.96
2022-11-01T09:09:35.851Z,62.76
2022-11-01T09:12:14.183Z,62.26
2022-11-01T09:14:45.744Z,62.11
2022-11-01T09:17:19.658Z,62.78
2022-11-01T09:19:53.298Z,62.76
2022-11-01T09:22:27.234Z,62.40
2022-11-01T09:25:00.694Z,61.94
2022-11-01T09:27:34.793Z,62.47
2022-11-01T09:30:10.307Z,62.14
2022-11-01T09:32:44.018Z,61.96
2022-11-01T09:35:18.216Z,61.83
2022-11-01T09:37:53.589Z,61.91
2022-11-01T09:40:27.695Z,62.03
2022-11-01T09:43:02.223Z,62.23
2022-11-01T09:45:37.868Z,62.14
2022-11-01T09:48:14.162Z,62.13
2022-11-01T09:50:48.681Z,61.81
2022-11-01T09:53:25.098Z,61.33
2022-11-01T09:56:04.005Z,60.87
2022-11-01T09:58:42.788Z,61.02
2022-11-01T10:01:23.846Z,61.15
2022-11-01T10:04:10.127Z,61.38
2022-11-01T10:06:46.497Z,61.21
2022-11-01T10:09:25.194Z,61.29
2022-11-01T10:12:05.464Z,61.14
2022-11-01T10:14:55.062Z,61.43
2022-11-01T10:17:33.765Z,61.60
2022-11-01T10:20:10.763Z,61.62
2022-11-01T10:22:46.612Z,61.49
2022-11-01T10:25:23.998Z,61.85
2022-11-01T10:28:03.185Z,61.94
2022-11-01T10:30:40.863Z,62.15
2022-11-01T10:33:26.703Z,62.26
2022-11-01T10:36:03.300Z,62.25
2022-11-01T10:39:16.541Z,62.09
2022-11-01T10:41:23.874Z,62.26
2022-11-01T10:43:59.919Z,62.21
2022-11-01T10:46:36.374Z,62.23
2022-11-01T10:49:14.577Z,62.42
2022-11-01T10:51:49.802Z,62.48
2022-11-01T10:54:26.162Z,62.20
2022-11-01T10:57:02.656Z,62.18
2022-11-01T10:59:40.013Z,62.33
2022-11-01T11:02:18.954Z,62.50
2022-11-01T11:04:52.767Z,62.46
2022-11-01T11:07:28.837Z,62.71
2022-11-01T11:10:03.394Z,62.95
2022-11-01T11:12:38.697Z,63.02
2022-11-01T11:15:19.586Z,63.03
2022-11-01T11:17:57.105Z,62.87
2022-11-01T11:20:31.788Z,62.84
2022-11-01T11:23:06.055Z,62.66
2022-11-01T11:25:41.354Z,62.44
2022-11-01T11:28:26.660Z,62.32
2022-11-01T11:31:02.021Z,62.18
2022-11-01T11:33:35.426Z,61.88
2022-11-01T11:36:10.377Z,62.03
2022-11-01T11:38:48.534Z,61.96
2022-11-01T11:41:31.494Z,62.31
2022-11-01T11:44:05.199Z,62.21
2022-11-01T11:46:38.544Z,62.11
2022-11-01T11:49:14.626Z,61.93
2022-11-01T11:51:49.175Z,61.75
2022-11-01T11:54:29.038Z,61.70
2022-11-01T11:57:12.314Z,61.73
2022-11-01T12:02:24.616Z,61.68
2022-11-01T12:05:03.932Z,61.44
2022-11-01T12:07:38.655Z,61.24
2022-11-01T12:10:30.330Z,61.61
2022-11-01T12:13:05.349Z,61.76
2022-11-01T12:15:41.479Z,61.75
2022-11-01T12:18:16.872Z,61.64
2022-11-01T12:20:53.391Z,61.48
2022-11-01T12:23:29.487Z,61.29
2022-11-01T12:26:05.402Z,61.51
2022-11-01T12:28:41.126Z,61.69
2022-11-01T12:31:18.030Z,61.44
2022-11-01T12:33:54.726Z,61.69
2022-11-01T12:36:31.670Z,61.72
2022-11-01T12:39:12.075Z,61.78
2022-11-01T12:41:48.382Z,61.74
2022-11-01T12:44:35.067Z,61.61
2022-11-01T12:47:12.429Z,61.47
2022-11-01T12:49:48.986Z,61.53
2022-11-01T12:52:27.011Z,61.67
2022-11-01T12:55:05.968Z,61.78
2022-11-01T12:57:40.197Z,61.75
2022-11-01T13:00:18.515Z,61.77
2022-11-01T13:03:00.829Z,61.92
2022-11-01T13:05:42.201Z,61.80
2022-11-01T13:08:19.161Z,61.94
2022-11-01T13:10:53.995Z,61.96
2022-11-01T13:13:30.211Z,61.98
2022-11-01T13:16:08.843Z,61.95
2022-11-01T13:18:46.677Z,61.98
2022-11-01T13:21:24.733Z,61.97
2022-11-01T13:26:44.382Z,62.43
2022-11-01T13:29:21.134Z,62.39
2022-11-01T13:32:01.238Z,62.31
2022-11-01T13:34:52.465Z,62.24
2022-11-01T13:37:31.791Z,62.08
2022-11-01T13:40:17.501Z,62.07
2022-11-01T13:42:54.476Z,62.09
2022-11-01T13:46:06.182Z,62.09
2022-11-01T13:51:34.711Z,62.12
2022-11-01T13:54:12.208Z,62.13
2022-11-01T13:59:35.769Z,62.09
2022-11-01T14:03:02.050Z,61.92
2022-11-01T14:05:41.988Z,61.97
2022-11-01T14:08:41.125Z,61.92
2022-11-01T14:11:16.722Z,61.90
2022-11-01T14:13:50.304Z,61.88
2022-11-01T14:16:24.892Z,61.95
2022-11-01T14:19:22.188Z,62.17
2022-11-01T14:22:00.442Z,62.20
2022-11-01T14:24:35.665Z,62.33
2022-11-01T14:27:24.543Z,62.35
2022-11-01T14:29:58.703Z,62.44
2022-11-01T14:32:34.513Z,62.57
2022-11-01T14:35:16.103Z,62.69
2022-11-01T14:37:53.680Z,62.57
2022-11-01T14:40:35.133Z,62.52
2022-11-01T14:43:13.556Z,62.44
2022-11-01T14:45:50.034Z,62.29
2022-11-01T14:48:28.109Z,62.23
2022-11-01T14:51:05.093Z,62.16
2022-11-01T14:53:41.560Z,62.15
2022-11-01T14:56:18.653Z,62.12
2022-11-01T14:58:52.297Z,62.09
2022-11-01T15:01:30.746Z,62.02
2022-11-01T15:04:05.660Z,62.00
2022-11-01T15:06:42.920Z,62.21
2022-11-01T15:09:22.462Z,62.29
2022-11-01T15:11:59.981Z,62.38
2022-11-01T15:14:37.624Z,62.52
2022-11-01T15:17:21.195Z,62.65
2022-11-01T15:20:00.123Z,62.69
2022-11-01T15:22:36.656Z,62.72
2022-11-01T15:25:18.012Z,62.85
2022-11-01T15:27:53.012Z,62.98
2022-11-01T15:30:29.233Z,63.04
2022-11-01T15:33:23.239Z,63.10
2022-11-01T15:35:59.510Z,63.13
2022-11-01T15:41:27.349Z,63.25
2022-11-01T15:44:01.751Z,63.21
2022-11-01T15:46:38.922Z,63.12
2022-11-01T15:49:14.680Z,63.20
2022-11-01T15:51:52.931Z,63.26
2022-11-01T15:54:33.126Z,63.39
2022-11-01T15:57:11.537Z,63.46
2022-11-01T15:59:50.024Z,63.44
2022-11-01T16:02:26.461Z,63.42
2022-11-01T16:05:01.120Z,63.35
2022-11-01T16:07:36.167Z,63.32
2022-11-01T16:10:18.033Z,63.32
2022-11-01T16:12:53.649Z,63.36
2022-11-01T16:15:30.013Z,63.37
2022-11-01T16:18:05.995Z,63.39
2022-11-01T16:20:43.306Z,63.42
2022-11-01T16:23:27.172Z,63.39
2022-11-01T16:26:09.197Z,63.36
2022-11-01T16:28:45.129Z,63.40
2022-11-01T16:31:26.248Z,63.43
2022-11-01T16:34:01.145Z,63.39
2022-11-01T16:36:46.314Z,63.41
2022-11-01T16:39:29.802Z,63.44
2022-11-01T16:42:04.264Z,63.53
2022-11-01T16:44:38.049Z,63.64
2022-11-01T16:47:14.036Z,63.77
2022-11-01T16:49:49.911Z,63.88
2022-11-01T16:52:23.231Z,63.88
2022-11-01T16:54:56.657Z,63.92
2022-11-01T16:57:30.745Z,63.98
2022-11-01T17:00:04.690Z,63.98
2022-11-01T17:02:39.475Z,63.97
2022-11-01T17:05:19.477Z,63.98
2022-11-01T17:07:52.456Z,63.98
2022-11-01T17:10:27.492Z,63.95
2022-11-01T17:13:02.621Z,63.95
2022-11-01T17:15:38.778Z,63.91
2022-11-01T17:18:17.020Z,63.95
2022-11-01T17:20:51.627Z,64.04
2022-11-01T17:23:27.099Z,64.14
2022-11-01T17:26:00.291Z,64.17
2022-11-01T17:28:33.664Z,64.15
2022-11-01T17:31:07.299Z,64.14
2022-11-01T17:33:40.426Z,64.15
2022-11-01T17:36:15.976Z,64.14
2022-11-01T17:38:50.371Z,64.09
2022-11-01T17:41:23.458Z,64.02
2022-11-01T17:43:56.638Z,64.01
2022-11-01T17:46:29.742Z,63.93
2022-11-01T17:49:02.992Z,63.83
2022-11-01T17:51:35.927Z,63.89
2022-11-01T17:54:09.657Z,63.95
2022-11-01T17:56:42.672Z,63.96
2022-11-01T17:59:15.748Z,63.95
2022-11-01T18:01:48.944Z,63.87
2022-11-01T18:04:22.211Z,63.84
2022-11-01T18:06:55.343Z,63.80
2022-11-01T18:09:28.211Z,63.82
2022-11-01T18:12:05.646Z,63.92
2022-11-01T18:14:45.635Z,63.91
2022-11-01T18:17:29.802Z,63.85
2022-11-01T18:20:07.051Z,63.86
2022-11-01T18:22:43.271Z,63.92
2022-11-01T18:25:23.759Z,63.92
2022-11-01T18:27:59.177Z,64.02
2022-11-01T18:30:32.712Z,64.05
2022-11-01T18:33:08.538Z,64.04
2022-11-01T18:35:45.021Z,64.06
2022-11-01T18:38:25.943Z,64.14
2022-11-01T18:41:02.575Z,64.05
2022-11-01T18:43:38.069Z,64.07
2022-11-01T18:46:25.015Z,64.04
2022-11-01T18:48:53.726Z,64.07
2022-11-01T18:51:28.960Z,64.03
2022-11-01T18:54:06.601Z,63.98
2022-11-01T18:56:41.233Z,63.96
2022-11-01T18:59:16.576Z,63.94
2022-11-01T19:04:36.260Z,63.96
2022-11-01T19:07:14.159Z,63.99
2022-11-01T19:09:47.380Z,64.06
2022-11-01T19:12:27.835Z,63.89
2022-11-01T19:14:59.655Z,63.95
2022-11-01T19:17:37.293Z,64.01
2022-11-01T19:20:22.002Z,64.02
2022-11-01T19:22:57.826Z,64.11
2022-11-01T19:25:34.154Z,64.11
2022-11-01T19:28:13.526Z,64.12
2022-11-01T19:30:51.425Z,64.07
2022-11-01T19:33:25.803Z,64.02
2022-11-01T19:35:59.293Z,63.81
2022-11-01T19:38:32.793Z,63.76
2022-11-01T19:41:06.230Z,63.86
2022-11-01T19:43:39.292Z,64.01
2022-11-01T19:46:15.048Z,64.12
2022-11-01T19:48:48.836Z,64.12
2022-11-01T19:51:24.588Z,64.06
2022-11-01T19:53:57.771Z,64.07
2022-11-01T19:56:31.196Z,64.05
2022-11-01T19:59:05.080Z,64.13
2022-11-01T20:01:41.714Z,64.25
2022-11-01T20:04:27.925Z,64.28
2022-11-01T20:07:04.346Z,64.21
2022-11-01T20:09:38.957Z,64.16
2022-11-01T20:12:12.456Z,64.33
2022-11-01T20:14:45.865Z,64.38
2022-11-01T20:17:18.919Z,64.42
2022-11-01T20:19:53.817Z,64.46
2022-11-01T20:22:28.300Z,64.60
2022-11-01T20:25:01.603Z,64.64
2022-11-01T20:27:34.708Z,64.68
2022-11-01T20:30:10.778Z,64.70
2022-11-01T20:32:44.134Z,64.72
2022-11-01T20:35:19.151Z,64.79
2022-11-01T20:37:52.485Z,64.79
2022-11-01T20:40:25.786Z,64.87
2022-11-01T20:42:59.055Z,64.87
2022-11-01T20:45:32.216Z,64.85
2022-11-01T20:48:07.482Z,64.96
2022-11-01T20:50:40.606Z,65.00
2022-11-01T20:53:14.952Z,65.09
2022-11-01T20:55:48.423Z,65.10
2022-11-01T20:58:21.418Z,65.11
2022-11-01T21:00:54.933Z,65.27
2022-11-01T21:03:29.202Z,65.27
2022-11-01T21:06:02.653Z,65.24
2022-11-01T21:08:36.784Z,65.29
2022-11-01T21:11:13.964Z,65.24
2022-11-01T21:13:47.076Z,65.28
2022-11-01T21:16:25.726Z,65.24
2022-11-01T21:19:02.319Z,65.22
2022-11-01T21:21:46.518Z,65.27
2022-11-01T21:24:30.649Z,65.29
2022-11-01T21:30:20.955Z,65.59
2022-11-01T21:32:54.357Z,65.54
2022-11-01T21:35:41.014Z,65.46
2022-11-01T21:38:51.113Z,65.54
2022-11-01T21:44:30.369Z,65.43
2022-11-01T21:47:12.896Z,65.45
2022-11-01T21:49:46.331Z,65.56
2022-11-01T21:52:20.078Z,65.59
2022-11-01T21:54:53.503Z,65.69
2022-11-01T21:57:26.681Z,65.72
2022-11-01T21:59:59.774Z,65.63
2022-11-01T22:02:33.822Z,65.66
2022-11-01T22:05:08.723Z,65.75
2022-11-01T22:07:41.823Z,65.73
2022-11-01T22:10:15.108Z,65.78
2022-11-01T22:12:48.437Z,65.86
2022-11-01T22:15:21.636Z,65.82
2022-11-01T22:17:54.692Z,65.78
2022-11-01T22:20:27.511Z,65.75
2022-11-01T22:23:00.980Z,65.63
2022-11-01T22:25:34.297Z,65.47
2022-11-01T22:28:07.841Z,65.39
2022-11-01T22:30:40.894Z,65.45
2022-11-01T22:33:14.030Z,65.46
2022-11-01T22:35:47.051Z,65.47
2022-11-01T22:38:23.427Z,65.34
2022-11-01T22:40:59.662Z,65.42
2022-11-01T22:43:34.839Z,65.37
2022-11-01T22:46:16.176Z,65.48
2022-11-01T22:48:50.281Z,65.57
2022-11-01T22:51:26.742Z,65.61
2022-11-01T22:54:01.149Z,65.52
2022-11-01T22:56:34.257Z,65.48
2022-11-01T22:59:11.460Z,65.47
2022-11-01T23:01:45.587Z,65.43
2022-11-01T23:04:23.646Z,65.47
2022-11-01T23:06:58.459Z,65.47
2022-11-01T23:09:31.465Z,65.45
2022-11-01T23:12:23.339Z,65.45
2022-11-01T23:14:56.374Z,65.54
2022-11-01T23:17:32.513Z,65.65
2022-11-01T23:20:07.180Z,65.74
2022-11-01T23:22:40.267Z,65.74
2022-11-01T23:25:13.529Z,65.70
2022-11-01T23:27:46.999Z,65.77
2022-11-01T23:30:21.126Z,65.81
2022-11-01T23:32:54.312Z,65.73
2022-11-01T23:35:27.693Z,65.51
2022-11-01T23:38:01.011Z,65.25
2022-11-01T23:40:34.939Z,65.12
2022-11-01T23:43:18.317Z,65.15
2022-11-01T23:45:52.585Z,65.13
2022-11-01T23:48:26.295Z,65.24
2022-11-01T23:50:59.751Z,65.30
2022-11-01T23:53:35.872Z,65.21
2022-11-01T23:56:10.480Z,65.12
2022-11-01T23:58:44.024Z,65.13
